createdAt,value
2023-05-24T00:05:00.909Z,100199.19
2023-05-24T00:10:04.791Z,100213.25
2023-05-24T00:15:07.276Z,100219.53
2023-05-24T00:20:14.293Z,100216.78
2023-05-24T00:25:16.230Z,100219.53
2023-05-24T00:30:18.060Z,100228.88
2023-05-24T00:35:19.876Z,100221.84
2023-05-24T00:40:21.639Z,100224.53
2023-05-24T00:45:25.506Z,100229.97
2023-05-24T00:50:27.214Z,100235.69
2023-05-24T00:55:30.365Z,100223.84
2023-05-24T01:00:32.553Z,100242.56
2023-05-24T01:05:34.279Z,100240.38
2023-05-24T01:11:06.550Z,100243.06
2023-05-24T01:16:15.517Z,100240.19
2023-05-24T01:21:38.671Z,100247.59
2023-05-24T01:27:12.307Z,100249.81
2023-05-24T01:32:14.063Z,100254.59
2023-05-24T01:37:15.766Z,100249.53
2023-05-24T01:42:26.471Z,100256.97
2023-05-24T01:47:28.176Z,100256.56
2023-05-24T01:52:34.697Z,100263.41
2023-05-24T01:57:41.394Z,100271.50
2023-05-24T02:02:43.491Z,100267.00
2023-05-24T02:07:46.170Z,100267.13
2023-05-24T02:12:47.833Z,100265.63
2023-05-24T02:17:49.545Z,100261.94
2023-05-24T02:22:51.376Z,100256.41
2023-05-24T02:27:53.243Z,100246.19
2023-05-24T02:32:55.039Z,100243.31
2023-05-24T02:37:58.647Z,100242.38
2023-05-24T02:43:00.485Z,100249.81
2023-05-24T02:48:02.448Z,100240.84
2023-05-24T02:53:04.485Z,100243.56
2023-05-24T02:58:06.332Z,100240.63
2023-05-24T03:03:09.978Z,100240.84
2023-05-24T03:08:11.834Z,100240.63
2023-05-24T03:13:13.600Z,100247.53
2023-05-24T03:18:15.470Z,100252.19
2023-05-24T03:23:18.859Z,100257.53
2023-05-24T03:28:22.340Z,100255.34
2023-05-24T03:33:24.353Z,100262.69
2023-05-24T03:38:26.284Z,100254.06
2023-05-24T03:43:28.447Z,100266.69
2023-05-24T03:48:32.531Z,100274.63
2023-05-24T03:53:34.217Z,100275.69
2023-05-24T03:58:36.028Z,100275.59
2023-05-24T04:03:37.769Z,100276.41
2023-05-24T04:08:39.702Z,100276.47
2023-05-24T04:13:41.790Z,100280.34
2023-05-24T04:18:45.347Z,100292.19
2023-05-24T04:23:47.227Z,100297.78
2023-05-24T04:28:50.151Z,100300.38
2023-05-24T04:33:52.748Z,100296.03
2023-05-24T04:38:56.138Z,100298.53
2023-05-24T04:43:59.932Z,100302.66
2023-05-24T04:49:02.312Z,100311.41
2023-05-24T04:54:09.241Z,100317.25
2023-05-24T04:59:11.143Z,100321.53
2023-05-24T05:04:13.016Z,100330.47
2023-05-24T05:09:15.844Z,100336.13
2023-05-24T05:14:17.662Z,100336.88
2023-05-24T05:19:19.572Z,100339.34
2023-05-24T05:24:21.908Z,100345.41
2023-05-24T05:29:24.520Z,100340.53
2023-05-24T05:34:26.424Z,100341.66
2023-05-24T05:39:28.400Z,100346.69
2023-05-24T05:44:30.307Z,100343.22
2023-05-24T05:49:32.802Z,100352.22
2023-05-24T05:54:35.002Z,100337.38
2023-05-24T05:59:38.240Z,100352.63
2023-05-24T06:04:40.123Z,100359.94
2023-05-24T06:09:41.936Z,100360.44
2023-05-24T06:14:44.260Z,100350.28
2023-05-24T06:19:45.942Z,100364.97
2023-05-24T06:24:47.915Z,100370.09
2023-05-24T06:29:50.002Z,100370.00
2023-05-24T06:34:51.877Z,100372.09
2023-05-24T06:39:53.711Z,100370.66
2023-05-24T06:44:55.445Z,100373.84
2023-05-24T06:49:57.637Z,100391.81
2023-05-24T06:54:59.569Z,100377.41
2023-05-24T07:00:01.658Z,100384.50
2023-05-24T07:05:03.844Z,100382.81
2023-05-24T07:10:08.487Z,100389.97
2023-05-24T07:15:10.419Z,100392.91
2023-05-24T07:20:13.826Z,100392.41
2023-05-24T07:25:15.597Z,100389.91
2023-05-24T07:30:30.977Z,100403.25
2023-05-24T07:35:33.892Z,100408.03
2023-05-24T07:40:35.643Z,100411.09
2023-05-24T07:45:37.461Z,100409.78
2023-05-24T07:50:39.196Z,100409.06
2023-05-24T07:55:41.140Z,100421.16
2023-05-24T08:00:43.096Z,100425.50
2023-05-24T08:05:45.132Z,100426.06
2023-05-24T08:10:47.179Z,100428.06
2023-05-24T08:15:48.901Z,100434.19
2023-05-24T08:20:50.686Z,100436.81
2023-05-24T08:25:53.414Z,100445.56
2023-05-24T08:30:55.693Z,100431.69
2023-05-24T08:35:57.430Z,100430.84
2023-05-24T08:40:59.306Z,100438.34
2023-05-24T08:46:02.612Z,100431.59
2023-05-24T08:51:05.016Z,100445.34
2023-05-24T08:56:10.391Z,100449.94
2023-05-24T09:01:17.058Z,100443.00
2023-05-24T09:06:19.536Z,100437.72
2023-05-24T09:11:23.021Z,100439.50
2023-05-24T09:16:25.067Z,100436.88
2023-05-24T09:21:27.300Z,100439.34
2023-05-24T09:26:30.535Z,100438.19
2023-05-24T09:31:37.380Z,100439.84
2023-05-24T09:36:43.160Z,100446.38
2023-05-24T09:41:55.701Z,100452.22
2023-05-24T09:47:06.756Z,100444.19
2023-05-24T09:52:08.644Z,100432.88
2023-05-24T09:57:11.206Z,100448.63
2023-05-24T10:02:13.184Z,100455.13
2023-05-24T10:07:19.988Z,100454.41
2023-05-24T10:12:23.348Z,100446.03
2023-05-24T10:17:28.097Z,100459.56
2023-05-24T10:22:31.091Z,100457.25
2023-05-24T10:27:33.447Z,100457.53
2023-05-24T10:32:39.142Z,100449.44
2023-05-24T10:37:42.792Z,100448.09
2023-05-24T10:42:45.248Z,100449.41
2023-05-24T10:47:47.054Z,100471.19
2023-05-24T10:52:49.630Z,100473.09
2023-05-24T10:57:51.371Z,100468.44
2023-05-24T11:03:04.169Z,100467.22
2023-05-24T11:08:07.441Z,100473.06
2023-05-24T11:13:09.373Z,100478.81
2023-05-24T11:18:14.049Z,100484.75
2023-05-24T11:23:16.717Z,100479.94
2023-05-24T11:28:18.892Z,100477.97
2023-05-24T11:33:24.945Z,100466.34
2023-05-24T11:38:27.519Z,100469.53
2023-05-24T11:43:31.377Z,100471.16
2023-05-24T11:48:33.371Z,100473.59
2023-05-24T11:53:35.058Z,100467.81
2023-05-24T11:58:49.679Z,100469.94
2023-05-24T12:03:53.410Z,100464.03
2023-05-24T12:08:55.416Z,100477.16
2023-05-24T12:13:58.432Z,100473.19
2023-05-24T12:19:07.146Z,100473.56
2023-05-24T12:24:22.160Z,100469.69
2023-05-24T12:29:23.857Z,100467.41
2023-05-24T12:34:25.547Z,100467.81
2023-05-24T12:39:31.674Z,100467.03
2023-05-24T12:44:37.957Z,100460.53
2023-05-24T12:49:39.709Z,100476.75
2023-05-24T12:54:41.379Z,100461.91
2023-05-24T12:59:43.400Z,100458.59
2023-05-24T13:04:45.148Z,100449.19
2023-05-24T13:09:46.795Z,100450.31
2023-05-24T13:14:50.706Z,100445.94
2023-05-24T13:19:54.256Z,100445.75
2023-05-24T13:24:56.029Z,100445.16
2023-05-24T13:30:01.246Z,100438.94
2023-05-24T13:35:05.290Z,100443.59
2023-05-24T13:40:09.658Z,100447.09
2023-05-24T13:45:12.561Z,100432.75
2023-05-24T13:50:14.518Z,100432.97
2023-05-24T13:55:16.706Z,100432.22
2023-05-24T14:00:19.194Z,100438.28
2023-05-24T14:05:27.431Z,100429.28
2023-05-24T14:10:29.796Z,100430.28
2023-05-24T14:15:32.097Z,100429.84
2023-05-24T14:20:38.201Z,100426.97
2023-05-24T14:25:42.332Z,100424.66
2023-05-24T14:30:44.387Z,100427.78
2023-05-24T14:35:46.401Z,100432.81
2023-05-24T14:40:48.527Z,100427.31
2023-05-24T14:45:50.298Z,100416.50
2023-05-24T14:50:52.572Z,100422.41
2023-05-24T14:55:54.485Z,100428.13
2023-05-24T15:00:56.322Z,100432.06
2023-05-24T15:05:58.311Z,100424.13
2023-05-24T15:11:00.042Z,100422.16
2023-05-24T15:16:01.788Z,100423.59
2023-05-24T15:21:03.680Z,100430.09
2023-05-24T15:26:05.788Z,100432.63
2023-05-24T15:31:07.685Z,100420.31
2023-05-24T15:36:11.017Z,100432.25
2023-05-24T15:41:12.849Z,100430.09
2023-05-24T15:46:14.812Z,100429.09
2023-05-24T15:56:22.180Z,100435.59
2023-05-24T16:01:24.020Z,100427.47
2023-05-24T16:06:25.731Z,100434.13
2023-05-24T16:11:27.526Z,100431.19
2023-05-24T16:16:29.637Z,100428.03
2023-05-24T16:21:33.118Z,100422.00
2023-05-24T16:26:35.177Z,100418.16
2023-05-24T16:31:37.124Z,100431.19
2023-05-24T16:36:39.756Z,100420.66
2023-05-24T16:41:41.588Z,100421.53
2023-05-24T16:46:46.891Z,100439.16
2023-05-24T16:51:49.732Z,100431.16
2023-05-24T16:56:55.060Z,100437.69
2023-05-24T17:01:56.958Z,100428.16
2023-05-24T17:06:58.777Z,100426.44
2023-05-24T17:12:00.584Z,100435.81
2023-05-24T17:17:04.069Z,100439.75
2023-05-24T17:22:08.731Z,100439.38
2023-05-24T17:27:10.911Z,100444.19
2023-05-24T17:32:12.817Z,100446.78
2023-05-24T17:37:14.708Z,100450.56
2023-05-24T17:42:16.506Z,100456.59
2023-05-24T17:47:18.646Z,100463.91
2023-05-24T17:52:20.438Z,100471.63
2023-05-24T17:57:22.281Z,100465.63
2023-05-24T18:02:24.412Z,100475.53
2023-05-24T18:07:26.253Z,100469.91
2023-05-24T18:12:28.597Z,100463.38
2023-05-24T18:17:31.527Z,100469.84
2023-05-24T18:22:33.519Z,100473.59
2023-05-24T18:27:35.606Z,100483.34
2023-05-24T18:32:41.991Z,100480.66
2023-05-24T18:37:47.948Z,100492.84
2023-05-24T18:42:52.922Z,100497.28
2023-05-24T18:47:54.808Z,100500.56
2023-05-24T18:52:56.825Z,100488.44
2023-05-24T18:57:58.730Z,100498.03
2023-05-24T19:03:01.095Z,100499.50
2023-05-24T19:08:02.909Z,100495.06
2023-05-24T19:13:06.553Z,100498.63
2023-05-24T19:18:08.986Z,100504.31
2023-05-24T19:23:10.827Z,100519.03
2023-05-24T19:28:12.813Z,100528.84
2023-05-24T19:33:14.885Z,100528.91
2023-05-24T19:38:17.977Z,100543.16
2023-05-24T19:43:20.008Z,100539.88
2023-05-24T19:48:22.663Z,100532.47
2023-05-24T19:53:24.648Z,100540.53
2023-05-24T19:58:26.516Z,100548.00
2023-05-24T20:03:28.322Z,100548.28
2023-05-24T20:08:30.182Z,100562.47
2023-05-24T20:13:31.889Z,100575.69
2023-05-24T20:18:35.394Z,100574.28
2023-05-24T20:23:37.172Z,100579.44
2023-05-24T20:28:38.834Z,100579.38
2023-05-24T20:33:40.726Z,100581.16
2023-05-24T20:38:42.513Z,100582.78
2023-05-24T20:43:44.303Z,100590.34
2023-05-24T20:48:46.728Z,100601.53
2023-05-24T20:53:51.689Z,100593.72
2023-05-24T20:58:54.334Z,100596.81
2023-05-24T21:03:56.698Z,100601.97
2023-05-24T21:08:58.942Z,100609.75
2023-05-24T21:14:00.731Z,100616.97
2023-05-24T21:19:02.491Z,100616.88
2023-05-24T21:24:04.389Z,100609.66
2023-05-24T21:29:06.133Z,100613.97
2023-05-24T21:34:07.909Z,100622.47
2023-05-24T21:39:09.698Z,100622.00
2023-05-24T21:44:11.411Z,100621.97
2023-05-24T21:49:13.164Z,100625.63
2023-05-24T21:54:15.145Z,100629.56
2023-05-24T21:59:16.933Z,100634.34
2023-05-24T22:04:20.676Z,100630.19
2023-05-24T22:09:27.987Z,100637.44
2023-05-24T22:14:29.743Z,100637.91
2023-05-24T22:24:41.389Z,100649.69
2023-05-24T22:29:43.886Z,100648.97
2023-05-24T22:34:45.812Z,100646.94
2023-05-24T22:39:47.531Z,100655.94
2023-05-24T22:44:49.239Z,100652.47
2023-05-24T22:49:54.132Z,100654.25
2023-05-24T22:54:56.135Z,100657.63
2023-05-24T22:59:57.797Z,100651.13
2023-05-24T23:05:00.259Z,100663.72
2023-05-24T23:10:03.300Z,100654.38
2023-05-24T23:15:05.304Z,100641.75
2023-05-24T23:20:10.100Z,100650.13
2023-05-24T23:25:11.900Z,100656.41
2023-05-24T23:30:13.631Z,100662.63
2023-05-24T23:35:15.898Z,100665.25
2023-05-24T23:40:17.860Z,100669.47
2023-05-24T23:45:19.664Z,100673.84
2023-05-24T23:50:22.654Z,100682.06
2023-05-24T23:55:24.631Z,100676.41
